createdAt,value
2018-04-19T00:01:03.082Z,13.40
2018-04-19T00:03:32.014Z,13.30
2018-04-19T00:06:01.727Z,13.10
2018-04-19T00:08:29.898Z,13.10
2018-04-19T00:10:58.064Z,13.20
2018-04-19T00:13:26.210Z,13.00
2018-04-19T00:15:54.446Z,12.90
2018-04-19T00:18:22.590Z,12.90
2018-04-19T00:20:50.774Z,12.80
2018-04-19T00:23:18.923Z,12.70
2018-04-19T00:25:47.156Z,12.60
2018-04-19T00:28:15.294Z,12.80
2018-04-19T00:30:43.466Z,12.50
2018-04-19T00:33:11.610Z,12.30
2018-04-19T00:35:39.859Z,12.50
2018-04-19T00:38:08.774Z,12.50
2018-04-19T00:40:36.956Z,12.50
2018-04-19T00:43:05.115Z,12.60
2018-04-19T00:45:34.130Z,12.50
2018-04-19T00:48:02.335Z,12.50
2018-04-19T00:50:30.499Z,12.50
2018-04-19T00:53:09.621Z,12.40
2018-04-19T00:55:37.955Z,12.50
2018-04-19T00:58:06.875Z,12.40
2018-04-19T01:00:35.051Z,12.40
2018-04-19T01:03:03.208Z,12.80
2018-04-19T01:05:32.251Z,13.50
2018-04-19T01:08:00.405Z,13.40
2018-04-19T01:10:28.576Z,13.80
2018-04-19T01:12:56.731Z,14.20
2018-04-19T01:15:25.745Z,14.40
2018-04-19T01:17:53.892Z,14.40
2018-04-19T01:20:22.851Z,14.40
2018-04-19T01:22:51.000Z,14.30
2018-04-19T01:25:19.969Z,14.00
2018-04-19T01:27:48.643Z,13.90
2018-04-19T01:30:16.803Z,13.80
2018-04-19T01:32:45.821Z,13.20
2018-04-19T01:35:14.034Z,13.10
2018-04-19T01:37:42.207Z,12.90
2018-04-19T01:40:10.375Z,12.80
2018-04-19T01:42:38.530Z,12.90
2018-04-19T01:45:06.735Z,12.80
2018-04-19T01:47:34.907Z,12.80
2018-04-19T01:50:03.063Z,12.40
2018-04-19T01:52:31.248Z,12.10
2018-04-19T01:54:59.520Z,12.20
2018-04-19T01:57:27.687Z,12.20
2018-04-19T01:59:55.841Z,12.20
2018-04-19T02:02:24.007Z,12.10
2018-04-19T02:04:53.202Z,12.00
2018-04-19T02:07:21.382Z,12.00
2018-04-19T02:09:49.536Z,12.00
2018-04-19T02:12:18.471Z,11.70
2018-04-19T02:14:46.875Z,11.70
2018-04-19T02:17:15.048Z,11.70
2018-04-19T02:19:43.208Z,11.60
2018-04-19T02:22:11.379Z,11.10
2018-04-19T02:27:13.843Z,11.00
2018-04-19T02:29:42.020Z,11.10
2018-04-19T02:32:10.200Z,11.20
2018-04-19T02:34:38.417Z,11.20
2018-04-19T02:37:06.614Z,11.00
2018-04-19T02:39:35.528Z,10.60
2018-04-19T02:42:03.699Z,10.60
2018-04-19T02:44:31.929Z,10.70
2018-04-19T02:47:00.104Z,10.60
2018-04-19T02:49:28.255Z,10.70
2018-04-19T02:51:56.444Z,10.80
2018-04-19T02:54:24.731Z,10.70
2018-04-19T02:56:53.096Z,10.70
2018-04-19T02:59:21.344Z,10.50
2018-04-19T03:01:49.753Z,10.60
2018-04-19T03:04:19.030Z,10.40
2018-04-19T03:06:47.533Z,10.40
2018-04-19T03:09:15.811Z,10.50
2018-04-19T03:11:43.996Z,10.40
2018-04-19T03:14:12.159Z,10.00
2018-04-19T03:16:40.309Z,9.70
2018-04-19T03:19:08.487Z,9.80
2018-04-19T03:21:36.639Z,9.70
2018-04-19T03:24:04.812Z,9.60
2018-04-19T03:26:32.963Z,9.40
2018-04-19T03:29:01.968Z,9.30
2018-04-19T03:31:30.059Z,9.30
2018-04-19T03:33:58.300Z,9.20
2018-04-19T03:36:27.217Z,9.20
2018-04-19T03:38:55.392Z,9.10
2018-04-19T03:41:23.530Z,9.20
2018-04-19T03:43:52.571Z,9.10
2018-04-19T03:46:20.719Z,9.10
2018-04-19T03:48:49.657Z,9.10
2018-04-19T03:51:17.799Z,9.10
2018-04-19T03:53:46.043Z,9.50
2018-04-19T03:56:14.201Z,9.20
2018-04-19T03:58:42.372Z,9.20
2018-04-19T04:01:10.542Z,9.30
2018-04-19T04:03:38.853Z,8.90
2018-04-19T04:06:06.998Z,8.60
2018-04-19T04:08:35.173Z,8.60
2018-04-19T04:11:03.315Z,8.80
2018-04-19T04:13:31.716Z,9.10
2018-04-19T04:15:59.862Z,9.20
2018-04-19T04:18:40.054Z,9.10
2018-04-19T04:21:18.147Z,8.90
2018-04-19T04:23:55.012Z,8.70
2018-04-19T04:26:23.155Z,8.60
2018-04-19T04:28:51.331Z,8.80
2018-04-19T04:31:20.280Z,8.80
2018-04-19T04:33:49.235Z,8.40
2018-04-19T04:36:17.441Z,8.40
2018-04-19T04:38:45.608Z,8.60
2018-04-19T04:41:13.754Z,8.40
2018-04-19T04:43:42.756Z,8.60
2018-04-19T04:46:10.948Z,8.50
2018-04-19T04:48:39.125Z,8.50
2018-04-19T04:51:07.275Z,8.30
2018-04-19T04:53:36.246Z,8.50
2018-04-19T04:56:04.421Z,8.50
2018-04-19T04:58:33.332Z,8.30
2018-04-19T05:01:01.508Z,8.30
2018-04-19T05:03:30.526Z,8.30
2018-04-19T05:05:58.694Z,8.30
2018-04-19T05:08:26.840Z,8.30
2018-04-19T05:10:54.998Z,8.30
2018-04-19T05:13:23.995Z,8.50
2018-04-19T05:15:52.172Z,8.50
2018-04-19T05:18:20.395Z,8.50
2018-04-19T05:20:48.569Z,8.50
2018-04-19T05:23:16.779Z,8.50
2018-04-19T05:25:45.716Z,8.70
2018-04-19T05:28:13.868Z,8.70
2018-04-19T05:30:42.039Z,9.10
2018-04-19T05:33:11.030Z,9.50
2018-04-19T05:35:39.198Z,9.50
2018-04-19T05:38:07.346Z,9.60
2018-04-19T05:40:35.519Z,9.50
2018-04-19T05:43:04.551Z,9.40
2018-04-19T05:45:32.718Z,9.40
2018-04-19T05:48:00.864Z,9.60
2018-04-19T05:50:29.035Z,9.70
2018-04-19T05:52:58.166Z,9.90
2018-04-19T05:55:26.359Z,9.90
2018-04-19T05:57:54.530Z,10.10
2018-04-19T06:00:22.701Z,10.20
2018-04-19T06:02:51.688Z,10.50
2018-04-19T06:05:20.209Z,10.40
2018-04-19T06:07:48.794Z,10.50
2018-04-19T06:10:17.476Z,10.50
2018-04-19T06:12:46.162Z,10.70
2018-04-19T06:15:14.435Z,10.80
2018-04-19T06:17:42.694Z,10.70
2018-04-19T06:20:10.898Z,10.90
2018-04-19T06:22:40.211Z,11.40
2018-04-19T06:25:09.483Z,11.50
2018-04-19T06:27:38.065Z,11.50
2018-04-19T06:30:07.357Z,11.70
2018-04-19T06:32:36.352Z,12.00
2018-04-19T06:35:04.509Z,11.90
2018-04-19T06:37:32.687Z,12.00
2018-04-19T06:40:00.978Z,12.20
2018-04-19T06:42:29.190Z,12.50
2018-04-19T06:44:57.374Z,12.70
2018-04-19T06:47:25.771Z,13.10
2018-04-19T06:49:53.948Z,13.50
2018-04-19T06:52:23.189Z,13.80
2018-04-19T06:54:52.247Z,13.90
2018-04-19T06:57:20.431Z,13.90
2018-04-19T06:59:49.019Z,14.10
2018-04-19T07:02:19.041Z,14.30
2018-04-19T07:04:47.467Z,14.30
2018-04-19T07:07:16.003Z,14.60
2018-04-19T07:09:44.481Z,14.80
2018-04-19T07:12:12.961Z,15.10
2018-04-19T07:14:41.529Z,15.40
2018-04-19T07:17:09.921Z,15.70
2018-04-19T07:19:38.193Z,15.90
2018-04-19T07:22:06.375Z,16.00
2018-04-19T07:24:37.584Z,16.00
2018-04-19T07:27:06.822Z,16.30
2018-04-19T07:29:36.522Z,16.50
2018-04-19T07:32:04.739Z,16.40
2018-04-19T07:34:32.902Z,16.70
2018-04-19T07:37:01.099Z,16.90
2018-04-19T07:39:29.274Z,16.80
2018-04-19T07:41:58.300Z,16.70
2018-04-19T07:44:26.459Z,16.70
2018-04-19T07:46:54.960Z,16.60
2018-04-19T07:49:24.040Z,17.20
2018-04-19T07:51:53.457Z,17.40
2018-04-19T07:54:22.037Z,17.40
2018-04-19T07:56:50.415Z,17.50
2018-04-19T07:59:18.997Z,17.50
2018-04-19T08:01:47.683Z,17.50
2018-04-19T08:04:15.976Z,17.90
2018-04-19T08:06:44.436Z,17.90
2018-04-19T08:09:13.018Z,18.00
2018-04-19T08:11:43.751Z,18.20
2018-04-19T08:14:12.435Z,18.10
2018-04-19T08:16:41.021Z,18.30
2018-04-19T08:19:10.624Z,18.50
2018-04-19T08:21:39.012Z,18.40
2018-04-19T08:24:07.302Z,18.40
2018-04-19T08:26:36.391Z,18.80
2018-04-19T08:29:04.655Z,18.80
2018-04-19T08:31:35.131Z,19.20
2018-04-19T08:34:03.318Z,19.20
2018-04-19T08:36:31.718Z,19.10
2018-04-19T08:39:00.210Z,19.20
2018-04-19T08:41:29.375Z,19.70
2018-04-19T08:43:57.889Z,19.70
2018-04-19T08:46:26.448Z,19.80
2018-04-19T08:48:55.146Z,19.90
2018-04-19T08:51:23.725Z,19.80
2018-04-19T08:53:52.204Z,19.90
2018-04-19T08:56:20.417Z,20.10
2018-04-19T08:58:49.354Z,20.00
2018-04-19T09:01:17.523Z,20.00
2018-04-19T09:03:46.145Z,20.00
2018-04-19T09:06:14.709Z,20.00
2018-04-19T09:08:43.108Z,20.10
2018-04-19T09:11:11.535Z,20.10
2018-04-19T09:13:39.732Z,20.00
2018-04-19T09:16:07.901Z,20.40
2018-04-19T09:18:36.559Z,20.70
2018-04-19T09:21:05.994Z,20.80
2018-04-19T09:23:34.167Z,20.70
2018-04-19T09:26:02.353Z,20.90
2018-04-19T09:28:31.167Z,21.30
2018-04-19T09:30:59.456Z,21.40
2018-04-19T09:33:28.016Z,21.30
2018-04-19T09:35:57.152Z,21.30
2018-04-19T09:38:25.396Z,21.20
2018-04-19T09:40:54.432Z,21.50
2018-04-19T09:43:24.570Z,21.50
2018-04-19T09:45:52.820Z,21.60
2018-04-19T09:48:20.974Z,21.30
2018-04-19T09:50:49.995Z,21.90
2018-04-19T09:53:18.152Z,21.90
2018-04-19T09:55:46.615Z,21.90
2018-04-19T09:58:16.576Z,22.50
2018-04-19T10:00:46.695Z,22.50
2018-04-19T10:03:18.963Z,22.70
2018-04-19T10:05:47.955Z,22.70
2018-04-19T10:08:16.312Z,22.70
2018-04-19T10:10:45.411Z,22.30
2018-04-19T10:13:13.908Z,22.20
2018-04-19T10:15:42.493Z,22.50
2018-04-19T10:18:10.716Z,22.70
2018-04-19T10:20:39.735Z,23.30
2018-04-19T10:23:07.887Z,23.20
2018-04-19T10:25:36.059Z,23.20
2018-04-19T10:28:04.686Z,22.80
2018-04-19T10:30:33.562Z,23.00
2018-04-19T10:33:02.057Z,23.40
2018-04-19T10:35:30.634Z,23.60
2018-04-19T10:37:58.863Z,23.70
2018-04-19T10:40:27.242Z,23.60
2018-04-19T10:42:55.764Z,23.60
2018-04-19T10:45:24.524Z,23.80
2018-04-19T10:47:52.931Z,23.80
2018-04-19T10:50:21.612Z,23.70
2018-04-19T10:52:50.100Z,23.60
2018-04-19T10:55:18.674Z,23.60
2018-04-19T10:57:46.936Z,23.80
2018-04-19T11:00:15.241Z,23.90
2018-04-19T11:02:43.648Z,23.80
2018-04-19T11:05:12.756Z,24.50
2018-04-19T11:07:41.174Z,24.50
2018-04-19T11:10:09.436Z,24.50
2018-04-19T11:12:37.601Z,24.80
2018-04-19T11:15:05.774Z,24.90
2018-04-19T11:17:33.928Z,24.60
2018-04-19T11:20:02.097Z,24.90
2018-04-19T11:22:30.298Z,25.10
2018-04-19T11:24:58.466Z,24.70
2018-04-19T11:27:26.966Z,24.90
2018-04-19T11:29:55.550Z,25.30
2018-04-19T11:32:23.822Z,25.40
2018-04-19T11:34:52.071Z,25.30
2018-04-19T11:37:20.248Z,25.60
2018-04-19T11:39:49.675Z,25.80
2018-04-19T11:42:18.252Z,25.70
2018-04-19T11:44:46.833Z,25.70
2018-04-19T11:47:15.415Z,25.90
2018-04-19T11:49:43.791Z,25.80
2018-04-19T11:52:12.065Z,25.60
2018-04-19T11:54:40.258Z,25.40
2018-04-19T11:57:08.821Z,25.60
2018-04-19T11:59:37.508Z,25.90
2018-04-19T12:02:10.555Z,26.00
2018-04-19T12:04:38.799Z,26.10
2018-04-19T12:07:08.066Z,26.00
2018-04-19T12:09:37.570Z,26.10
2018-04-19T12:12:06.068Z,26.10
2018-04-19T12:14:34.427Z,26.30
2018-04-19T12:17:02.699Z,26.30
2018-04-19T12:19:31.711Z,26.50
2018-04-19T12:21:59.899Z,26.50
2018-04-19T12:24:29.317Z,26.80
2018-04-19T12:26:58.871Z,26.90
2018-04-19T12:29:27.937Z,26.90
2018-04-19T12:31:56.111Z,26.90
2018-04-19T12:34:24.284Z,27.00
2018-04-19T12:36:52.465Z,26.90
2018-04-19T12:39:21.433Z,27.00
2018-04-19T12:41:49.607Z,27.00
2018-04-19T12:44:17.766Z,27.00
2018-04-19T12:46:46.695Z,27.00
2018-04-19T12:49:15.004Z,27.00
2018-04-19T12:51:43.175Z,26.90
2018-04-19T12:54:11.332Z,27.20
2018-04-19T12:56:39.520Z,27.40
2018-04-19T12:59:07.698Z,27.30
2018-04-19T13:01:35.867Z,27.40
2018-04-19T13:04:04.012Z,27.20
2018-04-19T13:06:32.255Z,27.00
2018-04-19T13:09:01.166Z,27.30
2018-04-19T13:11:29.353Z,27.30
2018-04-19T13:13:57.507Z,27.40
2018-04-19T13:16:25.672Z,27.40
2018-04-19T13:18:54.687Z,27.40
2018-04-19T13:21:22.852Z,27.30
2018-04-19T13:23:51.019Z,27.40
2018-04-19T13:26:19.191Z,27.20
2018-04-19T13:28:47.436Z,27.50
2018-04-19T13:31:16.367Z,27.50
2018-04-19T13:33:44.543Z,27.50
2018-04-19T13:36:12.695Z,27.50
2018-04-19T13:38:41.003Z,27.50
2018-04-19T13:41:09.160Z,27.60
2018-04-19T13:43:37.354Z,27.50
2018-04-19T13:46:05.507Z,27.40
2018-04-19T13:48:34.529Z,27.40
2018-04-19T13:51:02.710Z,27.40
2018-04-19T13:53:30.897Z,27.40
2018-04-19T13:55:59.075Z,27.60
2018-04-19T13:58:28.145Z,27.30
2018-04-19T14:00:57.096Z,27.40
2018-04-19T14:03:25.282Z,27.40
2018-04-19T14:05:53.498Z,27.50
2018-04-19T14:08:22.698Z,27.50
2018-04-19T14:10:50.870Z,27.40
2018-04-19T14:13:19.057Z,27.40
2018-04-19T14:15:47.223Z,27.20
2018-04-19T14:18:15.506Z,27.30
2018-04-19T14:20:45.176Z,27.20
2018-04-19T14:23:13.371Z,27.10
2018-04-19T14:25:41.542Z,27.30
2018-04-19T14:28:10.538Z,27.60
2018-04-19T14:30:38.707Z,27.60
2018-04-19T14:33:06.901Z,27.60
2018-04-19T14:35:35.175Z,27.60
2018-04-19T14:38:04.162Z,27.50
2018-04-19T14:40:33.839Z,27.70
2018-04-19T14:43:02.007Z,27.70
2018-04-19T14:45:30.203Z,27.70
2018-04-19T14:47:58.447Z,27.00
2018-04-19T14:50:26.652Z,27.10
2018-04-19T14:52:54.833Z,27.10
2018-04-19T14:55:23.072Z,26.90
2018-04-19T14:57:52.506Z,26.90
2018-04-19T15:00:20.687Z,26.90
2018-04-19T15:02:48.871Z,27.00
2018-04-19T15:05:17.083Z,26.80
2018-04-19T15:07:45.272Z,26.70
2018-04-19T15:10:13.470Z,26.60
2018-04-19T15:12:41.651Z,26.90
2018-04-19T15:15:09.843Z,26.80
2018-04-19T15:17:38.271Z,26.60
2018-04-19T15:20:06.467Z,26.40
2018-04-19T15:22:34.639Z,26.40
2018-04-19T15:25:02.842Z,26.20
2018-04-19T15:27:31.064Z,26.30
2018-04-19T15:29:59.261Z,26.40
2018-04-19T15:32:27.430Z,26.20
2018-04-19T15:34:55.633Z,26.30
2018-04-19T15:37:24.079Z,26.40
2018-04-19T15:39:52.275Z,26.60
2018-04-19T15:42:20.443Z,26.50
2018-04-19T15:44:48.634Z,26.40
2018-04-19T15:47:17.092Z,26.30
2018-04-19T15:49:45.295Z,26.30
2018-04-19T15:52:13.476Z,26.20
2018-04-19T15:54:41.684Z,26.10
2018-04-19T15:57:10.012Z,26.00
2018-04-19T15:59:38.203Z,25.70
2018-04-19T16:02:06.387Z,25.70
2018-04-19T16:04:34.598Z,25.80
2018-04-19T16:07:04.617Z,25.70
2018-04-19T16:09:32.812Z,25.60
2018-04-19T16:12:01.000Z,25.50
2018-04-19T16:14:29.192Z,25.60
2018-04-19T16:16:57.518Z,25.60
2018-04-19T16:19:25.720Z,25.30
2018-04-19T16:21:53.883Z,25.30
2018-04-19T16:24:22.061Z,25.30
2018-04-19T16:26:50.336Z,25.20
2018-04-19T16:29:18.516Z,25.30
2018-04-19T16:31:46.752Z,25.30
2018-04-19T16:34:15.679Z,25.20
2018-04-19T16:36:44.167Z,25.20
2018-04-19T16:39:12.351Z,25.10
2018-04-19T16:41:40.543Z,25.00
2018-04-19T16:44:08.706Z,25.00
2018-04-19T16:46:36.955Z,24.90
2018-04-19T16:49:05.130Z,24.90
2018-04-19T16:51:33.335Z,24.80
2018-04-19T16:54:01.511Z,24.70
2018-04-19T16:56:29.868Z,24.60
2018-04-19T16:58:58.031Z,24.40
2018-04-19T17:01:26.226Z,24.40
2018-04-19T17:03:54.413Z,24.40
2018-04-19T17:06:22.655Z,24.20
2018-04-19T17:08:50.851Z,24.00
2018-04-19T17:11:19.047Z,23.90
2018-04-19T17:13:47.229Z,24.00
2018-04-19T17:16:15.559Z,23.90
2018-04-19T17:18:43.743Z,23.80
2018-04-19T17:21:11.952Z,23.70
2018-04-19T17:23:40.898Z,23.40
2018-04-19T17:26:09.175Z,23.40
2018-04-19T17:28:37.411Z,23.30
2018-04-19T17:31:05.658Z,23.10
2018-04-19T17:33:33.835Z,23.00
2018-04-19T17:36:02.209Z,22.90
2018-04-19T17:38:30.387Z,22.80
2018-04-19T17:40:58.589Z,22.50
2018-04-19T17:43:27.539Z,22.30
2018-04-19T17:45:55.756Z,22.30
2018-04-19T17:48:24.712Z,22.20
2018-04-19T17:50:52.924Z,22.10
2018-04-19T17:53:21.867Z,21.90
2018-04-19T17:55:50.146Z,21.90
2018-04-19T17:58:18.335Z,21.70
2018-04-19T18:00:46.559Z,21.70
2018-04-19T18:03:14.732Z,21.20
2018-04-19T18:05:42.954Z,20.80
2018-04-19T18:08:11.123Z,20.80
2018-04-19T18:10:40.332Z,20.50
2018-04-19T18:13:08.511Z,20.50
2018-04-19T18:15:36.843Z,20.40
2018-04-19T18:18:05.055Z,20.40
2018-04-19T18:20:33.234Z,19.90
2018-04-19T18:23:01.932Z,20.00
2018-04-19T18:25:30.895Z,19.90
2018-04-19T18:28:00.007Z,19.70
2018-04-19T18:30:28.294Z,19.70
2018-04-19T18:32:56.503Z,19.50
2018-04-19T18:35:25.285Z,19.70
2018-04-19T18:37:53.483Z,19.50
2018-04-19T18:40:21.666Z,19.60
2018-04-19T18:42:49.867Z,19.20
2018-04-19T18:45:18.270Z,19.20
2018-04-19T18:47:46.476Z,19.00
2018-04-19T18:50:14.646Z,19.00
2018-04-19T18:52:42.897Z,18.70
2018-04-19T18:55:12.293Z,18.60
2018-04-19T18:57:41.615Z,18.50
2018-04-19T19:00:11.273Z,18.50
2018-04-19T19:02:39.987Z,18.10
2018-04-19T19:05:10.246Z,18.00
2018-04-19T19:07:40.729Z,17.80
2018-04-19T19:10:09.936Z,17.50
2018-04-19T19:12:41.355Z,17.20
2018-04-19T19:18:41.384Z,17.20
2018-04-19T19:21:10.491Z,17.20
2018-04-19T19:23:38.705Z,17.10
2018-04-19T19:26:08.313Z,17.20
2018-04-19T19:28:37.394Z,17.00
2018-04-19T19:31:05.571Z,16.90
2018-04-19T19:33:33.795Z,16.80
2018-04-19T19:36:02.004Z,16.80
2018-04-19T19:38:30.268Z,16.80
2018-04-19T19:40:59.354Z,16.50
2018-04-19T19:43:27.607Z,16.50
2018-04-19T19:45:56.723Z,16.30
2018-04-19T19:48:24.942Z,16.30
2018-04-19T19:50:53.713Z,16.20
2018-04-19T19:53:21.977Z,16.20
2018-04-19T19:55:51.019Z,16.20
2018-04-19T19:58:19.219Z,16.20
2018-04-19T20:00:47.418Z,15.90
2018-04-19T20:03:15.625Z,15.80
2018-04-19T20:05:44.651Z,15.80
2018-04-19T20:08:14.324Z,15.80
2018-04-19T20:10:42.498Z,15.80
2018-04-19T20:13:10.703Z,15.90
2018-04-19T20:15:39.121Z,16.00
2018-04-19T20:18:07.325Z,16.00
2018-04-19T20:20:35.515Z,15.80
2018-04-19T20:23:04.466Z,15.60
2018-04-19T20:25:32.661Z,15.70
2018-04-19T20:28:00.862Z,15.30
2018-04-19T20:30:29.066Z,15.30
2018-04-19T20:32:57.273Z,15.30
2018-04-19T20:35:26.248Z,15.00
2018-04-19T20:37:54.443Z,15.20
2018-04-19T20:40:22.639Z,15.20
2018-04-19T20:42:51.611Z,15.10
2018-04-19T20:45:19.807Z,15.10
2018-04-19T20:47:48.017Z,15.20
2018-04-19T20:50:16.216Z,15.00
2018-04-19T20:52:44.413Z,15.00
2018-04-19T20:55:12.635Z,14.90
2018-04-19T20:57:40.876Z,15.10
2018-04-19T21:00:09.059Z,15.00
2018-04-19T21:02:38.036Z,15.00
2018-04-19T21:05:06.253Z,15.00
2018-04-19T21:07:34.432Z,14.90
2018-04-19T21:10:02.632Z,14.80
2018-04-19T21:12:30.825Z,14.70
2018-04-19T21:14:59.042Z,14.70
2018-04-19T21:17:27.232Z,14.50
2018-04-19T21:19:55.454Z,14.60
2018-04-19T21:22:23.633Z,14.30
2018-04-19T21:24:51.881Z,14.50
2018-04-19T21:27:20.059Z,14.40
2018-04-19T21:29:48.267Z,14.60
2018-04-19T21:32:17.263Z,14.80
2018-04-19T21:34:45.477Z,14.70
2018-04-19T21:37:13.657Z,14.90
2018-04-19T21:39:41.872Z,14.60
2018-04-19T21:42:11.271Z,14.50
2018-04-19T21:44:40.271Z,14.50
2018-04-19T21:47:08.456Z,14.50
2018-04-19T21:49:37.460Z,14.40
2018-04-19T21:52:05.628Z,14.40
2018-04-19T21:54:33.851Z,14.50
2018-04-19T21:57:02.082Z,14.70
2018-04-19T21:59:31.772Z,14.30
2018-04-19T22:01:59.953Z,14.30
2018-04-19T22:04:28.952Z,14.20
2018-04-19T22:06:57.919Z,14.30
2018-04-19T22:09:26.124Z,14.30
2018-04-19T22:11:54.280Z,14.30
2018-04-19T22:14:22.684Z,14.00
2018-04-19T22:16:50.886Z,13.90
2018-04-19T22:19:19.801Z,13.90
2018-04-19T22:21:47.997Z,13.90
2018-04-19T22:24:16.982Z,13.80
2018-04-19T22:26:45.164Z,13.80
2018-04-19T22:29:13.320Z,13.50
2018-04-19T22:31:41.509Z,13.40
2018-04-19T22:34:09.721Z,13.30
2018-04-19T22:36:37.892Z,13.30
2018-04-19T22:39:06.039Z,13.20
2018-04-19T22:41:34.223Z,13.30
2018-04-19T22:44:02.407Z,13.30
2018-04-19T22:46:30.590Z,13.40
2018-04-19T22:48:58.739Z,13.40
2018-04-19T22:51:26.916Z,13.50
2018-04-19T22:53:55.067Z,13.20
2018-04-19T22:56:23.263Z,13.10
2018-04-19T22:58:51.413Z,13.10
2018-04-19T23:01:19.582Z,13.20
2018-04-19T23:03:47.762Z,13.00
2018-04-19T23:06:15.926Z,13.00
2018-04-19T23:08:44.094Z,13.10
2018-04-19T23:11:13.035Z,13.30
2018-04-19T23:13:41.990Z,13.20
2018-04-19T23:16:10.185Z,13.20
2018-04-19T23:18:38.340Z,12.80
2018-04-19T23:21:06.553Z,12.70
2018-04-19T23:23:34.738Z,12.70
2018-04-19T23:26:02.887Z,12.70
2018-04-19T23:28:31.087Z,12.70
2018-04-19T23:30:59.251Z,12.60
2018-04-19T23:33:27.569Z,12.30
2018-04-19T23:35:56.496Z,12.70
2018-04-19T23:38:24.686Z,12.70
2018-04-19T23:40:52.879Z,12.50
2018-04-19T23:43:22.053Z,12.70
2018-04-19T23:45:50.198Z,12.70
2018-04-19T23:48:18.381Z,12.50
2018-04-19T23:50:46.523Z,12.60
2018-04-19T23:53:14.758Z,12.60
2018-04-19T23:55:42.890Z,12.40
2018-04-19T23:58:11.055Z,12.30
